Time,TemperatureF,DewpointF,PressureIn,WindDirection,WindDirectionDegrees,WindSpeedMPH,WindSpeedGustMPH,Humidity,HourlyPrecipIn,Conditions,Clouds,dailyrainin,SoftwareType,DateUTC
2013-06-05 00:00:00,65.1,39.6,30.11,North,5,3.1,5.4,39,0.00,,---,0.00,VWS V13.01,2013-06-05 04:00:00,
2013-06-05 00:01:00,65.1,39.6,30.11,North,5,2.7,2.7,39,0.00,,---,0.00,VWS V13.01,2013-06-05 04:01:00,
2013-06-05 00:02:00,65.1,39.6,30.11,North,351,4.0,5.4,39,0.00,,---,0.00,VWS V13.01,2013-06-05 04:02:00,
2013-06-05 00:07:00,65.1,39.6,30.11,NE,53,2.7,3.1,39,0.00,,---,0.00,VWS V13.01,2013-06-05 04:07:00,
2013-06-05 00:12:00,65.1,38.9,30.11,NE,36,4.0,4.9,38,0.00,,---,0.00,VWS V13.01,2013-06-05 04:12:00,
2013-06-05 00:17:00,65.1,38.9,30.11,East,80,5.8,5.8,38,0.00,,---,0.00,VWS V13.01,2013-06-05 04:17:00,
2013-06-05 00:22:00,64.9,39.4,30.11,NNE,26,5.4,8.3,39,0.00,,---,0.00,VWS V13.01,2013-06-05 04:22:00,
2013-06-05 00:27:00,64.9,39.4,30.11,ENE,76,5.4,6.3,39,0.00,,---,0.00,VWS V13.01,2013-06-05 04:27:00,
2013-06-05 00:32:00,64.8,39.2,30.11,NE,54,6.3,6.3,39,0.00,,---,0.00,VWS V13.01,2013-06-05 04:32:00,
2013-06-05 00:37:00,64.6,39.7,30.11,ENE,62,4.5,8.3,40,0.00,,---,0.00,VWS V13.01,2013-06-05 04:37:00,
2013-06-05 00:42:00,64.4,40.2,30.11,NE,46,2.7,4.5,41,0.00,,---,0.00,VWS V13.01,2013-06-05 04:42:00,
2013-06-05 00:47:00,64.2,40.0,30.11,East,83,6.7,8.7,41,0.00,,---,0.00,VWS V13.01,2013-06-05 04:47:00,
2013-06-05 00:52:00,64.0,39.9,30.11,ENE,58,4.9,8.3,41,0.00,,---,0.00,VWS V13.01,2013-06-05 04:52:00,
2013-06-05 00:57:00,63.9,39.7,30.11,ENE,75,3.1,5.4,41,0.00,,---,0.00,VWS V13.01,2013-06-05 04:57:00,
2013-06-05 01:02:00,63.7,39.6,30.11,ENE,73,5.8,6.3,41,0.00,,---,0.00,VWS V13.01,2013-06-05 05:02:00,
2013-06-05 01:07:00,63.5,40.0,30.11,NE,37,6.9,7.4,42,0.00,,---,0.00,VWS V13.01,2013-06-05 05:07:00,
2013-06-05 01:12:00,63.5,40.0,30.11,ENE,67,4.0,6.9,42,0.00,,---,0.00,VWS V13.01,2013-06-05 05:12:00,
2013-06-05 01:17:00,63.3,39.9,30.11,NE,52,3.6,6.9,42,0.00,,---,0.00,VWS V13.01,2013-06-05 05:17:00,
2013-06-05 01:22:00,63.1,40.3,30.11,NE,51,4.5,6.3,43,0.00,,---,0.00,VWS V13.01,2013-06-05 05:22:00,
2013-06-05 01:28:00,63.1,40.3,30.11,ENE,62,3.6,7.4,43,0.00,,---,0.00,VWS V13.01,2013-06-05 05:28:00,
2013-06-05 01:33:00,63.0,40.1,30.11,ENE,77,4.9,6.3,43,0.00,,---,0.00,VWS V13.01,2013-06-05 05:33:00,
2013-06-05 01:38:00,63.0,40.7,30.11,ENE,73,4.9,5.8,44,0.00,,---,0.00,VWS V13.01,2013-06-05 05:38:00,
2013-06-05 01:43:00,62.8,40.6,30.11,NNE,33,7.4,7.4,44,0.00,,---,0.00,VWS V13.01,2013-06-05 05:43:00,
2013-06-05 01:48:00,62.8,40.6,30.11,ENE,59,3.6,6.7,44,0.00,,---,0.00,VWS V13.01,2013-06-05 05:48:00,
2013-06-05 01:53:00,62.6,39.8,30.11,North,4,4.0,6.3,43,0.00,,---,0.00,VWS V13.01,2013-06-05 05:53:00,
2013-06-05 01:58:00,62.6,39.2,30.11,ENE,72,5.8,7.8,42,0.00,,---,0.00,VWS V13.01,2013-06-05 05:58:00,
2013-06-05 02:03:00,62.4,39.0,30.11,ENE,62,4.5,4.5,42,0.00,,---,0.00,VWS V13.01,2013-06-05 06:03:00,
2013-06-05 02:08:00,62.2,38.3,30.11,ENE,71,5.4,5.8,41,0.00,,---,0.00,VWS V13.01,2013-06-05 06:08:00,
2013-06-05 02:13:00,62.2,37.6,30.11,ENE,67,5.8,6.3,40,0.00,,---,0.00,VWS V13.01,2013-06-05 06:13:00,
2013-06-05 02:18:00,62.2,37.0,30.11,NE,55,6.9,6.9,39,0.00,,---,0.00,VWS V13.01,2013-06-05 06:18:00,
2013-06-05 02:23:00,62.2,36.3,30.11,ENE,76,7.4,7.4,38,0.00,,---,0.00,VWS V13.01,2013-06-05 06:23:00,
2013-06-05 02:28:00,62.2,36.3,30.11,NNE,19,4.5,4.5,38,0.00,,---,0.00,VWS V13.01,2013-06-05 06:28:00,
2013-06-05 02:33:00,62.1,35.5,30.11,NNE,12,3.6,7.8,37,0.00,,---,0.00,VWS V13.01,2013-06-05 06:33:00,
2013-06-05 02:38:00,62.1,35.5,30.11,ENE,66,4.9,9.2,37,0.00,,---,0.00,VWS V13.01,2013-06-05 06:38:00,
2013-06-05 02:43:00,61.9,34.7,30.11,ENE,63,4.0,6.3,36,0.00,,---,0.00,VWS V13.01,2013-06-05 06:43:00,
2013-06-05 02:47:00,61.9,34.7,30.11,NE,38,5.4,7.8,36,0.00,,---,0.00,VWS V13.01,2013-06-05 06:47:00,
2013-06-05 02:53:00,61.7,34.5,30.11,ESE,113,4.0,6.7,36,0.00,,---,0.00,VWS V13.01,2013-06-05 06:53:00,
2013-06-05 02:58:00,61.7,35.2,30.11,NNE,27,0.0,6.9,37,0.00,,---,0.00,VWS V13.01,2013-06-05 06:58:00,
2013-06-05 03:03:00,61.7,35.2,30.11,NE,52,4.0,6.3,37,0.00,,---,0.00,VWS V13.01,2013-06-05 07:03:00,
2013-06-05 03:08:00,61.5,35.0,30.11,NE,56,6.9,6.9,37,0.00,,---,0.00,VWS V13.01,2013-06-05 07:08:00,
2013-06-05 03:13:00,61.5,35.0,30.11,ENE,59,3.6,6.3,37,0.00,,---,0.00,VWS V13.01,2013-06-05 07:13:00,
2013-06-05 03:18:00,61.3,34.9,30.11,NE,46,5.8,5.8,37,0.00,,---,0.00,VWS V13.01,2013-06-05 07:18:00,
2013-06-05 03:23:00,61.3,34.9,30.11,ENE,72,7.8,7.8,37,0.00,,---,0.00,VWS V13.01,2013-06-05 07:23:00,
2013-06-05 03:28:00,61.2,34.7,30.11,NE,34,5.4,5.8,37,0.00,,---,0.00,VWS V13.01,2013-06-05 07:28:00,
2013-06-05 03:33:00,61.0,34.5,30.11,SE,125,4.9,5.4,37,0.00,,---,0.00,VWS V13.01,2013-06-05 07:33:00,
2013-06-05 03:38:00,60.8,35.1,30.11,NE,55,5.4,5.8,38,0.00,,---,0.00,VWS V13.01,2013-06-05 07:38:00,
2013-06-05 03:43:00,60.8,35.1,30.11,ENE,58,3.6,6.7,38,0.00,,---,0.00,VWS V13.01,2013-06-05 07:43:00,
2013-06-05 03:48:00,60.8,35.1,30.11,NNE,33,2.7,2.7,38,0.00,,---,0.00,VWS V13.01,2013-06-05 07:48:00,
2013-06-05 03:53:00,60.8,35.1,30.11,NE,42,2.7,5.4,38,0.00,,---,0.00,VWS V13.01,2013-06-05 07:53:00,
2013-06-05 03:58:00,60.8,35.1,30.11,NE,42,3.1,3.1,38,0.00,,---,0.00,VWS V13.01,2013-06-05 07:58:00,
2013-06-05 04:03:00,60.6,35.5,30.11,ENE,64,3.1,4.0,39,0.00,,---,0.00,VWS V13.01,2013-06-05 08:03:00,
2013-06-05 04:08:00,60.4,35.4,30.11,ENE,64,0.0,0.0,39,0.00,,---,0.00,VWS V13.01,2013-06-05 08:08:00,
2013-06-05 04:13:00,60.4,35.4,30.11,ENE,64,3.6,3.6,39,0.00,,---,0.00,VWS V13.01,2013-06-05 08:13:00,
2013-06-05 04:18:00,60.4,35.4,30.14,ENE,62,2.7,3.1,39,0.00,,---,0.00,VWS V13.01,2013-06-05 08:18:00,
2013-06-05 04:23:00,60.3,35.9,30.14,NE,40,0.0,2.7,40,0.00,,---,0.00,VWS V13.01,2013-06-05 08:23:00,
2013-06-05 04:28:00,60.3,35.9,30.14,NE,40,0.0,0.0,40,0.00,,---,0.00,VWS V13.01,2013-06-05 08:28:00,
2013-06-05 04:33:00,60.1,36.3,30.14,NE,40,0.0,0.0,41,0.00,,---,0.00,VWS V13.01,2013-06-05 08:33:00,
2013-06-05 04:38:00,59.9,36.2,30.14,NE,40,0.0,0.0,41,0.00,,---,0.00,VWS V13.01,2013-06-05 08:38:00,
2013-06-05 04:43:00,59.5,36.5,30.14,NE,40,0.0,0.0,42,0.00,,---,0.00,VWS V13.01,2013-06-05 08:43:00,
2013-06-05 04:48:00,59.4,37.5,30.14,NE,40,0.0,0.0,44,0.00,,---,0.00,VWS V13.01,2013-06-05 08:48:00,
2013-06-05 04:53:00,59.4,36.9,30.14,NE,40,0.0,0.0,43,0.00,,---,0.00,VWS V13.01,2013-06-05 08:53:00,
2013-06-05 04:58:00,59.2,36.7,30.14,NE,39,0.0,0.0,43,0.00,,---,0.00,VWS V13.01,2013-06-05 08:58:00,
2013-06-05 05:03:00,59.2,37.3,30.14,NE,39,0.0,0.0,44,0.00,,---,0.00,VWS V13.01,2013-06-05 09:03:00,
2013-06-05 05:08:00,59.2,37.9,30.14,NE,37,2.7,3.6,45,0.00,,---,0.00,VWS V13.01,2013-06-05 09:08:00,
2013-06-05 05:13:00,59.2,37.9,30.14,NE,37,0.0,0.0,45,0.00,,---,0.00,VWS V13.01,2013-06-05 09:13:00,
2013-06-05 05:18:00,59.0,37.7,30.11,NE,37,0.0,0.0,45,0.00,,---,0.00,VWS V13.01,2013-06-05 09:18:00,
2013-06-05 05:23:00,59.0,37.7,30.11,NE,37,4.0,4.0,45,0.00,,---,0.00,VWS V13.01,2013-06-05 09:23:00,
2013-06-05 05:28:00,58.8,37.5,30.11,NNE,24,3.6,4.0,45,0.00,,---,0.00,VWS V13.01,2013-06-05 09:28:00,
2013-06-05 05:33:00,59.0,38.3,30.11,North,0,2.7,3.1,46,0.00,,---,0.00,VWS V13.01,2013-06-05 09:33:00,
2013-06-05 05:38:00,58.8,38.1,30.11,North,0,3.6,3.6,46,0.00,,---,0.00,VWS V13.01,2013-06-05 09:38:00,
2013-06-05 05:43:00,58.8,38.1,30.11,North,0,0.0,0.0,46,0.00,,---,0.00,VWS V13.01,2013-06-05 09:43:00,
2013-06-05 05:48:00,58.6,37.9,30.11,North,351,2.7,4.9,46,0.00,,---,0.00,VWS V13.01,2013-06-05 09:48:00,
2013-06-05 05:53:00,58.6,37.9,30.11,NNW,336,3.6,3.6,46,0.00,,---,0.00,VWS V13.01,2013-06-05 09:53:00,
2013-06-05 05:58:00,58.5,38.3,30.11,NNW,336,3.1,3.1,47,0.00,,---,0.00,VWS V13.01,2013-06-05 09:58:00,
2013-06-05 06:03:00,58.5,38.3,30.11,North,1,0.0,3.6,47,0.00,,---,0.00,VWS V13.01,2013-06-05 10:03:00,
2013-06-05 06:08:00,58.5,38.3,30.11,North,1,0.0,0.0,47,0.00,,---,0.00,VWS V13.01,2013-06-05 10:08:00,
2013-06-05 06:13:00,58.5,38.3,30.11,North,1,0.0,0.0,47,0.00,,---,0.00,VWS V13.01,2013-06-05 10:13:00,
2013-06-05 06:18:00,58.6,39.5,30.11,North,356,3.6,4.5,49,0.00,,---,0.00,VWS V13.01,2013-06-05 10:18:00,
2013-06-05 06:23:00,58.8,39.7,30.11,North,356,0.0,0.0,49,0.00,,---,0.00,VWS V13.01,2013-06-05 10:23:00,
2013-06-05 06:28:00,58.8,39.7,30.11,North,356,2.7,3.6,49,0.00,,---,0.00,VWS V13.01,2013-06-05 10:28:00,
2013-06-05 06:33:00,58.8,39.2,30.11,North,356,0.0,3.6,48,0.00,,---,0.00,VWS V13.01,2013-06-05 10:33:00,
2013-06-05 06:38:00,58.6,39.0,30.11,North,356,0.0,2.7,48,0.00,,---,0.00,VWS V13.01,2013-06-05 10:38:00,
2013-06-05 06:43:00,58.6,39.0,30.11,North,356,0.0,0.0,48,0.00,,---,0.00,VWS V13.01,2013-06-05 10:43:00,
2013-06-05 06:48:00,58.8,40.2,30.14,North,356,0.0,0.0,50,0.00,,---,0.00,VWS V13.01,2013-06-05 10:48:00,
2013-06-05 06:53:00,59.0,40.4,30.14,North,356,0.0,0.0,50,0.00,,---,0.00,VWS V13.01,2013-06-05 10:53:00,
2013-06-05 06:58:00,59.0,40.4,30.14,North,356,0.0,0.0,50,0.00,,---,0.00,VWS V13.01,2013-06-05 10:58:00,
2013-06-05 07:03:00,59.0,40.4,30.14,North,356,3.1,5.4,50,0.00,,---,0.00,VWS V13.01,2013-06-05 11:03:00,
2013-06-05 07:08:00,59.0,40.4,30.14,North,356,3.1,4.0,50,0.00,,---,0.00,VWS V13.01,2013-06-05 11:08:00,
2013-06-05 07:13:00,59.0,40.4,30.14,North,356,3.6,4.9,50,0.00,,---,0.00,VWS V13.01,2013-06-05 11:13:00,
2013-06-05 07:18:00,59.0,40.4,30.14,North,356,3.1,3.6,50,0.00,,---,0.00,VWS V13.01,2013-06-05 11:18:00,
2013-06-05 07:23:00,59.2,41.1,30.14,North,2,0.0,4.0,51,0.00,,---,0.00,VWS V13.01,2013-06-05 11:23:00,
2013-06-05 07:28:00,59.7,41.6,30.14,North,1,3.1,3.1,51,0.00,,---,0.00,VWS V13.01,2013-06-05 11:28:00,
2013-06-05 07:33:00,59.7,41.6,30.14,North,10,4.5,5.4,51,0.00,,---,0.00,VWS V13.01,2013-06-05 11:33:00,
2013-06-05 07:39:00,60.1,41.4,30.14,NE,42,5.4,5.8,50,0.00,,---,0.00,VWS V13.01,2013-06-05 11:39:00,
2013-06-05 07:44:00,60.3,41.6,30.14,NE,39,0.0,5.4,50,0.00,,---,0.00,VWS V13.01,2013-06-05 11:44:00,
2013-06-05 07:49:00,60.4,41.7,30.14,North,351,0.0,0.0,50,0.00,,---,0.00,VWS V13.01,2013-06-05 11:49:00,
2013-06-05 07:54:00,61.0,42.2,30.14,NNW,345,6.7,6.7,50,0.00,,---,0.00,VWS V13.01,2013-06-05 11:54:00,
2013-06-05 07:59:00,61.3,42.6,30.14,North,356,4.5,4.9,50,0.00,,---,0.00,VWS V13.01,2013-06-05 11:59:00,
2013-06-05 08:04:00,61.7,41.8,30.14,NNW,340,6.7,7.4,48,0.00,,---,0.00,VWS V13.01,2013-06-05 12:04:00,
2013-06-05 08:09:00,61.7,41.3,30.14,North,351,4.5,4.5,47,0.00,,---,0.00,VWS V13.01,2013-06-05 12:09:00,
2013-06-05 08:14:00,61.7,41.8,30.14,North,356,4.9,4.9,48,0.00,,---,0.00,VWS V13.01,2013-06-05 12:14:00,
2013-06-05 08:19:00,61.7,41.8,30.14,North,356,3.6,4.0,48,0.00,,---,0.00,VWS V13.01,2013-06-05 12:19:00,
2013-06-05 08:24:00,61.9,42.0,30.14,North,7,4.5,8.3,48,0.00,,---,0.00,VWS V13.01,2013-06-05 12:24:00,
2013-06-05 08:29:00,62.2,41.8,30.14,North,351,4.5,4.5,47,0.00,,---,0.00,VWS V13.01,2013-06-05 12:29:00,
2013-06-05 08:34:00,62.6,42.1,30.14,North,356,6.7,6.7,47,0.00,,---,0.00,VWS V13.01,2013-06-05 12:34:00,
2013-06-05 08:39:00,62.8,41.2,30.14,East,94,5.8,6.9,45,0.00,,---,0.00,VWS V13.01,2013-06-05 12:39:00,
2013-06-05 08:44:00,62.8,41.2,30.14,East,98,4.5,4.5,45,0.00,,---,0.00,VWS V13.01,2013-06-05 12:44:00,
2013-06-05 08:49:00,63.0,41.3,30.14,East,92,5.8,6.7,45,0.00,,---,0.00,VWS V13.01,2013-06-05 12:49:00,
2013-06-05 08:54:00,63.1,40.9,30.14,ENE,60,4.5,5.4,44,0.00,,---,0.00,VWS V13.01,2013-06-05 12:54:00,
2013-06-05 08:59:00,63.3,41.1,30.14,North,351,2.7,4.0,44,0.00,,---,0.00,VWS V13.01,2013-06-05 12:59:00,
2013-06-05 09:04:00,63.5,40.6,30.11,NE,41,3.1,3.1,43,0.00,,---,0.00,VWS V13.01,2013-06-05 13:04:00,
2013-06-05 09:09:00,63.9,41.0,30.11,ENE,65,5.8,6.9,43,0.00,,---,0.00,VWS V13.01,2013-06-05 13:09:00,
2013-06-05 09:14:00,64.0,40.5,30.11,North,356,8.7,8.7,42,0.00,,---,0.00,VWS V13.01,2013-06-05 13:14:00,
2013-06-05 09:19:00,64.4,40.8,30.11,North,4,4.0,5.4,42,0.00,,---,0.00,VWS V13.01,2013-06-05 13:19:00,
2013-06-05 09:24:00,64.8,40.5,30.11,North,356,6.9,7.8,41,0.00,,---,0.00,VWS V13.01,2013-06-05 13:24:00,
2013-06-05 09:29:00,65.1,40.2,30.11,NNE,27,5.8,5.8,40,0.00,,---,0.00,VWS V13.01,2013-06-05 13:29:00,
2013-06-05 09:34:00,65.5,39.2,30.11,NE,53,4.5,4.9,38,0.00,,---,0.00,VWS V13.01,2013-06-05 13:34:00,
2013-06-05 09:39:00,65.7,39.4,30.11,ENE,62,6.7,6.7,38,0.00,,---,0.00,VWS V13.01,2013-06-05 13:39:00,
2013-06-05 09:44:00,65.8,38.9,30.11,NE,52,7.8,7.8,37,0.00,,---,0.00,VWS V13.01,2013-06-05 13:44:00,
2013-06-05 09:49:00,66.0,39.0,30.11,NNE,23,5.4,5.8,37,0.00,,---,0.00,VWS V13.01,2013-06-05 13:49:00,
2013-06-05 09:54:00,66.4,38.6,30.11,NNE,21,4.0,6.7,36,0.00,,---,0.00,VWS V13.01,2013-06-05 13:54:00,
2013-06-05 09:59:00,66.6,38.8,30.11,ENE,70,4.9,6.7,36,0.00,,---,0.00,VWS V13.01,2013-06-05 13:59:00,
2013-06-05 10:04:00,66.6,38.8,30.11,East,87,4.5,7.4,36,0.00,,---,0.00,VWS V13.01,2013-06-05 14:04:00,
2013-06-05 10:09:00,66.7,38.2,30.11,North,5,5.4,6.7,35,0.00,,---,0.00,VWS V13.01,2013-06-05 14:09:00,
2013-06-05 10:14:00,67.3,38.7,30.11,NNE,25,5.4,6.7,35,0.00,,---,0.00,VWS V13.01,2013-06-05 14:14:00,
2013-06-05 10:19:00,67.6,38.3,30.08,NNE,29,4.0,10.1,34,0.00,,---,0.00,VWS V13.01,2013-06-05 14:19:00,
2013-06-05 10:24:00,68.0,37.8,30.08,ESE,114,5.4,8.7,33,0.00,,---,0.00,VWS V13.01,2013-06-05 14:24:00,
2013-06-05 10:29:00,68.2,38.0,30.08,ENE,67,8.3,8.3,33,0.00,,---,0.00,VWS V13.01,2013-06-05 14:29:00,
2013-06-05 10:34:00,68.5,38.3,30.08,East,99,6.9,9.6,33,0.00,,---,0.00,VWS V13.01,2013-06-05 14:34:00,
2013-06-05 10:39:00,68.7,37.7,30.08,East,87,5.4,9.2,32,0.00,,---,0.00,VWS V13.01,2013-06-05 14:39:00,
2013-06-05 10:44:00,69.3,38.2,30.08,East,93,6.7,9.6,32,0.00,,---,0.00,VWS V13.01,2013-06-05 14:44:00,
2013-06-05 10:49:00,69.8,38.6,30.08,North,5,4.9,6.7,32,0.00,,---,0.00,VWS V13.01,2013-06-05 14:49:00,
2013-06-05 10:54:00,70.3,39.1,30.08,ENE,66,4.5,4.9,32,0.00,,---,0.00,VWS V13.01,2013-06-05 14:54:00,
2013-06-05 10:59:00,70.7,37.8,30.08,ENE,64,4.0,10.5,30,0.00,,---,0.00,VWS V13.01,2013-06-05 14:59:00,
2013-06-05 11:04:00,71.1,36.3,30.08,NE,53,7.4,13.4,28,0.00,,---,0.00,VWS V13.01,2013-06-05 15:04:00,
2013-06-05 11:09:00,71.4,34.8,30.08,ENE,59,4.9,6.9,26,0.00,,---,0.00,VWS V13.01,2013-06-05 15:09:00,
2013-06-05 11:14:00,71.6,34.9,30.08,NE,52,6.3,6.3,26,0.00,,---,0.00,VWS V13.01,2013-06-05 15:14:00,
2013-06-05 11:19:00,72.0,33.2,30.08,SE,131,4.9,8.3,24,0.00,,---,0.00,VWS V13.01,2013-06-05 15:19:00,
2013-06-05 11:24:00,72.0,32.2,30.08,ENE,72,5.4,7.4,23,0.00,,---,0.00,VWS V13.01,2013-06-05 15:24:00,
2013-06-05 11:29:00,72.3,33.5,30.08,NE,51,4.5,8.3,24,0.00,,---,0.00,VWS V13.01,2013-06-05 15:29:00,
2013-06-05 11:34:00,72.5,32.6,30.08,East,101,5.8,6.9,23,0.00,,---,0.00,VWS V13.01,2013-06-05 15:34:00,
2013-06-05 11:39:00,72.5,31.5,30.08,NE,52,6.3,10.1,22,0.00,,---,0.00,VWS V13.01,2013-06-05 15:39:00,
2013-06-05 11:44:00,72.9,32.9,30.08,NE,40,4.5,5.8,23,0.00,,---,0.00,VWS V13.01,2013-06-05 15:44:00,
2013-06-05 11:49:00,73.6,33.5,30.08,NE,54,3.6,11.0,23,0.00,,---,0.00,VWS V13.01,2013-06-05 15:49:00,
2013-06-05 11:54:00,73.8,32.6,30.08,ENE,59,7.4,9.2,22,0.00,,---,0.00,VWS V13.01,2013-06-05 15:54:00,
2013-06-05 11:59:00,73.9,32.7,30.08,NE,37,7.4,7.8,22,0.00,,---,0.00,VWS V13.01,2013-06-05 15:59:00,
2013-06-05 12:04:00,74.3,33.0,30.05,East,95,6.9,7.4,22,0.00,,---,0.00,VWS V13.01,2013-06-05 16:04:00,
2013-06-05 12:09:00,74.5,33.2,30.05,North,0,8.3,8.7,22,0.00,,---,0.00,VWS V13.01,2013-06-05 16:09:00,
2013-06-05 12:14:00,74.8,33.5,30.05,ENE,70,4.5,5.8,22,0.00,,---,0.00,VWS V13.01,2013-06-05 16:14:00,
2013-06-05 12:20:00,75.6,34.1,30.08,ENE,76,4.9,9.6,22,0.00,,---,0.00,VWS V13.01,2013-06-05 16:20:00,
2013-06-05 12:25:00,76.1,34.5,30.08,ENE,76,5.8,10.1,22,0.00,,---,0.00,VWS V13.01,2013-06-05 16:25:00,
2013-06-05 12:30:00,76.1,33.4,30.08,ESE,103,6.9,7.8,21,0.00,,---,0.00,VWS V13.01,2013-06-05 16:30:00,
2013-06-05 12:35:00,76.5,33.7,30.05,NNE,23,5.4,5.4,21,0.00,,---,0.00,VWS V13.01,2013-06-05 16:35:00,
2013-06-05 12:40:00,76.6,33.8,30.05,ENE,65,6.3,6.9,21,0.00,,---,0.00,VWS V13.01,2013-06-05 16:40:00,
2013-06-05 12:45:00,77.4,35.6,30.05,NW,325,4.9,5.4,22,0.00,,---,0.00,VWS V13.01,2013-06-05 16:45:00,
2013-06-05 12:50:00,77.9,36.0,30.05,North,351,3.1,3.1,22,0.00,,---,0.00,VWS V13.01,2013-06-05 16:50:00,
2013-06-05 12:55:00,78.3,35.2,30.05,SE,125,0.0,0.0,21,0.00,,---,0.00,VWS V13.01,2013-06-05 16:55:00,
2013-06-05 13:00:00,77.4,34.4,30.05,NNE,27,3.6,3.6,21,0.00,,---,0.00,VWS V13.01,2013-06-05 17:00:00,
2013-06-05 13:05:00,78.1,35.0,30.05,NNE,23,4.0,4.5,21,0.00,,---,0.00,VWS V13.01,2013-06-05 17:05:00,
2013-06-05 13:10:00,78.6,35.5,30.05,North,351,3.6,4.0,21,0.00,,---,0.00,VWS V13.01,2013-06-05 17:10:00,
2013-06-05 13:15:00,78.3,35.2,30.05,North,2,4.0,4.0,21,0.00,,---,0.00,VWS V13.01,2013-06-05 17:15:00,
2013-06-05 13:20:00,79.0,36.9,30.05,North,351,7.4,7.4,22,0.00,,---,0.00,VWS V13.01,2013-06-05 17:20:00,
2013-06-05 13:25:00,79.5,36.2,30.05,NNE,13,2.7,3.1,21,0.00,,---,0.00,VWS V13.01,2013-06-05 17:25:00,
2013-06-05 13:30:00,79.9,35.3,30.05,WSW,237,4.0,4.5,20,0.00,,---,0.00,VWS V13.01,2013-06-05 17:30:00,
2013-06-05 13:35:00,80.4,37.0,30.05,ENE,67,3.6,4.5,21,0.00,,---,0.00,VWS V13.01,2013-06-05 17:35:00,
2013-06-05 13:40:00,81.0,36.2,30.05,ESE,118,5.4,5.8,20,0.00,,---,0.00,VWS V13.01,2013-06-05 17:40:00,
2013-06-05 13:45:00,80.6,35.9,30.05,North,356,5.4,8.3,20,0.00,,---,0.00,VWS V13.01,2013-06-05 17:45:00,
2013-06-05 13:50:00,80.8,37.2,30.05,NNW,344,5.8,6.7,21,0.00,,---,0.00,VWS V13.01,2013-06-05 17:50:00,
2013-06-05 13:55:00,81.7,36.8,30.05,NNW,343,4.9,5.4,20,0.00,,---,0.00,VWS V13.01,2013-06-05 17:55:00,
2013-06-05 14:00:00,82.4,37.3,30.05,ENE,62,6.3,7.4,20,0.00,,---,0.00,VWS V13.01,2013-06-05 18:00:00,
2013-06-05 14:05:00,82.0,37.0,30.05,East,101,4.0,4.9,20,0.00,,---,0.00,VWS V13.01,2013-06-05 18:05:00,
2013-06-05 14:10:00,81.7,36.8,30.05,North,351,5.8,6.3,20,0.00,,---,0.00,VWS V13.01,2013-06-05 18:10:00,
2013-06-05 14:15:00,82.6,37.5,30.05,NNE,15,4.0,5.8,20,0.00,,---,0.00,VWS V13.01,2013-06-05 18:15:00,
2013-06-05 14:20:00,82.9,37.8,30.05,ENE,75,5.8,5.8,20,0.00,,---,0.00,VWS V13.01,2013-06-05 18:20:00,
2013-06-05 14:25:00,83.5,36.9,30.05,East,98,0.0,0.0,19,0.00,,---,0.00,VWS V13.01,2013-06-05 18:25:00,
2013-06-05 14:30:00,83.7,37.1,30.05,East,91,0.0,3.6,19,0.00,,---,0.00,VWS V13.01,2013-06-05 18:30:00,
2013-06-05 14:35:00,84.0,37.4,30.05,North,7,6.7,7.8,19,0.00,,---,0.00,VWS V13.01,2013-06-05 18:35:00,
2013-06-05 14:40:00,84.0,37.4,30.05,SSW,193,6.3,7.4,19,0.00,,---,0.00,VWS V13.01,2013-06-05 18:40:00,
2013-06-05 14:45:00,84.0,37.4,30.05,WNW,285,4.0,6.9,19,0.00,,---,0.00,VWS V13.01,2013-06-05 18:45:00,
2013-06-05 14:50:00,84.7,38.0,30.02,North,8,6.7,6.9,19,0.00,,---,0.00,VWS V13.01,2013-06-05 18:50:00,
2013-06-05 14:55:00,84.0,37.4,30.02,East,88,0.0,3.1,19,0.00,,---,0.00,VWS V13.01,2013-06-05 18:55:00,
2013-06-05 15:00:00,82.9,36.5,30.02,NNE,15,4.5,7.4,19,0.00,,---,0.00,VWS V13.01,2013-06-05 19:00:00,
2013-06-05 15:05:00,82.6,36.2,30.02,North,356,5.4,5.4,19,0.00,,---,0.00,VWS V13.01,2013-06-05 19:05:00,
2013-06-05 15:10:00,82.9,37.8,30.02,North,351,0.0,2.7,20,0.00,,---,0.00,VWS V13.01,2013-06-05 19:10:00,
2013-06-05 15:15:00,82.4,37.3,30.02,North,351,5.8,5.8,20,0.00,,---,0.00,VWS V13.01,2013-06-05 19:15:00,
2013-06-05 15:20:00,82.2,37.2,30.02,North,9,3.6,4.5,20,0.00,,---,0.00,VWS V13.01,2013-06-05 19:20:00,
2013-06-05 15:25:00,83.7,38.4,30.02,North,351,2.7,3.6,20,0.00,,---,0.00,VWS V13.01,2013-06-05 19:25:00,
2013-06-05 15:30:00,85.1,39.6,30.02,NW,324,4.5,5.4,20,0.00,,---,0.00,VWS V13.01,2013-06-05 19:30:00,
2013-06-05 15:35:00,86.4,39.3,30.02,NNW,340,8.7,11.6,19,0.00,,---,0.00,VWS V13.01,2013-06-05 19:35:00,
2013-06-05 15:40:00,86.0,39.0,30.02,NE,34,5.8,8.3,19,0.00,,---,0.00,VWS V13.01,2013-06-05 19:40:00,
2013-06-05 15:45:00,86.0,39.0,30.02,NW,312,5.8,5.8,19,0.00,,---,0.00,VWS V13.01,2013-06-05 19:45:00,
2013-06-05 15:50:00,86.5,39.4,29.99,NNE,31,5.4,6.7,19,0.00,,---,0.00,VWS V13.01,2013-06-05 19:50:00,
2013-06-05 15:55:00,86.9,39.7,29.99,North,2,4.5,5.4,19,0.00,,---,0.00,VWS V13.01,2013-06-05 19:55:00,
2013-06-05 16:00:00,86.7,39.6,29.99,NE,51,4.5,6.9,19,0.00,,---,0.00,VWS V13.01,2013-06-05 20:00:00,
2013-06-05 16:05:00,84.6,37.8,29.99,NNE,27,3.1,4.0,19,0.00,,---,0.00,VWS V13.01,2013-06-05 20:05:00,
2013-06-05 16:10:00,84.4,37.7,29.99,NNW,333,4.0,6.7,19,0.00,,---,0.00,VWS V13.01,2013-06-05 20:10:00,
2013-06-05 16:15:00,84.9,38.1,29.99,ENE,66,3.6,4.9,19,0.00,,---,0.00,VWS V13.01,2013-06-05 20:15:00,
2013-06-05 16:20:00,85.3,38.4,29.99,East,82,3.6,4.0,19,0.00,,---,0.00,VWS V13.01,2013-06-05 20:20:00,
2013-06-05 16:25:00,86.4,39.3,29.99,NNE,31,5.4,7.4,19,0.00,,---,0.00,VWS V13.01,2013-06-05 20:25:00,
2013-06-05 16:30:00,87.1,38.5,29.99,ENE,70,4.5,7.4,18,0.00,,---,0.00,VWS V13.01,2013-06-05 20:30:00,
2013-06-05 16:35:00,86.7,38.2,29.99,North,11,4.9,9.6,18,0.00,,---,0.00,VWS V13.01,2013-06-05 20:35:00,
2013-06-05 16:40:00,86.0,37.6,29.99,East,94,4.9,7.4,18,0.00,,---,0.00,VWS V13.01,2013-06-05 20:40:00,
2013-06-05 16:45:00,84.6,37.8,29.99,ENE,73,6.3,7.4,19,0.00,,---,0.00,VWS V13.01,2013-06-05 20:45:00,
2013-06-05 16:50:00,84.4,37.7,29.99,NNW,341,2.7,4.0,19,0.00,,---,0.00,VWS V13.01,2013-06-05 20:50:00,
2013-06-05 16:55:00,85.5,38.5,29.99,East,80,4.9,5.4,19,0.00,,---,0.00,VWS V13.01,2013-06-05 20:55:00,
2013-06-05 17:00:00,85.3,38.4,29.99,NE,54,5.8,5.8,19,0.00,,---,0.00,VWS V13.01,2013-06-05 21:00:00,
2013-06-05 17:05:00,84.9,38.1,29.99,East,79,4.5,6.3,19,0.00,,---,0.00,VWS V13.01,2013-06-05 21:05:00,
2013-06-05 17:10:00,84.7,38.0,29.99,East,80,5.8,5.8,19,0.00,,---,0.00,VWS V13.01,2013-06-05 21:10:00,
2013-06-05 17:15:00,84.4,36.3,29.99,East,85,5.4,6.7,18,0.00,,---,0.00,VWS V13.01,2013-06-05 21:15:00,
2013-06-05 17:20:00,84.7,38.0,29.99,NE,41,3.1,4.0,19,0.00,,---,0.00,VWS V13.01,2013-06-05 21:20:00,
2013-06-05 17:25:00,85.1,36.9,29.99,North,351,5.4,5.4,18,0.00,,---,0.00,VWS V13.01,2013-06-05 21:25:00,
2013-06-05 17:30:00,84.9,38.1,29.99,North,11,4.0,5.4,19,0.00,,---,0.00,VWS V13.01,2013-06-05 21:30:00,
2013-06-05 17:35:00,83.8,37.2,29.99,NNW,340,3.6,4.0,19,0.00,,---,0.00,VWS V13.01,2013-06-05 21:35:00,
2013-06-05 17:40:00,83.1,36.6,29.99,North,356,6.9,6.9,19,0.00,,---,0.00,VWS V13.01,2013-06-05 21:40:00,
2013-06-05 17:45:00,83.3,36.8,29.99,North,0,2.7,5.4,19,0.00,,---,0.00,VWS V13.01,2013-06-05 21:45:00,
2013-06-05 17:50:00,84.6,37.8,29.96,ENE,63,3.1,5.8,19,0.00,,---,0.00,VWS V13.01,2013-06-05 21:50:00,
2013-06-05 17:55:00,84.2,37.5,29.96,NNW,347,6.7,6.7,19,0.00,,---,0.00,VWS V13.01,2013-06-05 21:55:00,
2013-06-05 18:01:00,83.1,36.6,29.96,North,6,4.9,8.7,19,0.00,,---,0.00,VWS V13.01,2013-06-05 22:01:00,
2013-06-05 18:06:00,81.9,35.6,29.96,East,79,4.5,6.9,19,0.00,,---,0.00,VWS V13.01,2013-06-05 22:06:00,
2013-06-05 18:11:00,81.0,36.2,29.96,NNW,347,3.1,4.0,20,0.00,,---,0.00,VWS V13.01,2013-06-05 22:11:00,
2013-06-05 18:16:00,80.8,36.0,29.96,North,356,6.3,6.7,20,0.00,,---,0.00,VWS V13.01,2013-06-05 22:16:00,
2013-06-05 18:21:00,81.3,36.5,29.96,NW,322,4.9,8.3,20,0.00,,---,0.00,VWS V13.01,2013-06-05 22:21:00,
2013-06-05 18:26:00,81.3,36.5,29.96,NW,311,4.5,5.4,20,0.00,,---,0.00,VWS V13.01,2013-06-05 22:26:00,
2013-06-05 18:31:00,81.3,36.5,29.96,NE,37,6.3,7.8,20,0.00,,---,0.00,VWS V13.01,2013-06-05 22:31:00,
2013-06-05 18:36:00,80.4,35.7,29.96,North,356,7.4,9.2,20,0.00,,---,0.00,VWS V13.01,2013-06-05 22:36:00,
2013-06-05 18:41:00,79.7,36.3,29.96,NE,36,4.9,6.9,21,0.00,,---,0.00,VWS V13.01,2013-06-05 22:41:00,
2013-06-05 18:46:00,79.2,35.9,29.96,North,10,5.4,6.3,21,0.00,,---,0.00,VWS V13.01,2013-06-05 22:46:00,
2013-06-05 18:51:00,79.2,35.9,29.96,North,351,5.8,7.4,21,0.00,,---,0.00,VWS V13.01,2013-06-05 22:51:00,
2013-06-05 18:56:00,78.8,35.6,29.96,North,356,3.6,4.9,21,0.00,,---,0.00,VWS V13.01,2013-06-05 22:56:00,
2013-06-05 19:01:00,78.4,36.5,29.96,North,356,3.6,4.5,22,0.00,,---,0.00,VWS V13.01,2013-06-05 23:01:00,
2013-06-05 19:06:00,78.4,36.5,29.96,NNW,341,3.1,5.4,22,0.00,,---,0.00,VWS V13.01,2013-06-05 23:06:00,
2013-06-05 19:11:00,77.9,36.0,29.96,North,356,2.7,4.9,22,0.00,,---,0.00,VWS V13.01,2013-06-05 23:11:00,
2013-06-05 19:16:00,77.7,37.0,29.96,North,351,4.9,6.3,23,0.00,,---,0.00,VWS V13.01,2013-06-05 23:16:00,
2013-06-05 19:21:00,77.2,36.5,29.96,North,351,2.7,2.7,23,0.00,,---,0.00,VWS V13.01,2013-06-05 23:21:00,
2013-06-05 19:26:00,76.8,36.2,29.96,North,10,4.5,4.5,23,0.00,,---,0.00,VWS V13.01,2013-06-05 23:26:00,
2013-06-05 19:31:00,76.3,36.9,29.96,NE,38,4.9,4.9,24,0.00,,---,0.00,VWS V13.01,2013-06-05 23:31:00,
2013-06-05 19:36:00,75.9,37.6,29.93,NE,56,4.9,6.3,25,0.00,,---,0.00,VWS V13.01,2013-06-05 23:36:00,
2013-06-05 19:41:00,75.2,37.0,29.93,ENE,64,3.6,4.9,25,0.00,,---,0.00,VWS V13.01,2013-06-05 23:41:00,
2013-06-05 19:46:00,75.2,39.0,29.93,North,9,6.7,6.7,27,0.00,,---,0.00,VWS V13.01,2013-06-05 23:46:00,
2013-06-05 19:51:00,75.0,36.8,29.96,NE,51,2.7,2.7,25,0.00,,---,0.00,VWS V13.01,2013-06-05 23:51:00,
2013-06-05 19:56:00,74.7,37.5,29.96,NNW,330,5.4,6.7,26,0.00,,---,0.00,VWS V13.01,2013-06-05 23:56:00,
2013-06-05 20:01:00,74.7,39.4,29.96,NNW,333,4.0,4.5,28,0.00,,---,0.00,VWS V13.01,2013-06-06 00:01:00,
2013-06-05 20:07:00,74.3,37.2,29.96,North,351,4.0,6.9,26,0.00,,---,0.00,VWS V13.01,2013-06-06 00:07:00,
2013-06-05 20:12:00,73.8,35.8,29.96,WNW,290,5.8,9.6,25,0.00,,---,0.00,VWS V13.01,2013-06-06 00:12:00,
2013-06-05 20:17:00,73.2,35.3,29.96,North,11,5.8,6.7,25,0.00,,---,0.00,VWS V13.01,2013-06-06 00:17:00,
2013-06-05 20:22:00,72.9,36.0,29.96,North,351,5.4,7.4,26,0.00,,---,0.00,VWS V13.01,2013-06-06 00:22:00,
2013-06-05 20:27:00,72.5,36.7,29.96,North,351,4.9,6.9,27,0.00,,---,0.00,VWS V13.01,2013-06-06 00:27:00,
2013-06-05 20:32:00,72.3,35.5,29.96,NNW,344,5.4,6.9,26,0.00,,---,0.00,VWS V13.01,2013-06-06 00:32:00,
2013-06-05 20:37:00,72.0,37.1,29.96,NNW,330,5.4,5.8,28,0.00,,---,0.00,VWS V13.01,2013-06-06 00:37:00,
2013-06-05 20:42:00,71.8,37.0,29.96,NW,319,4.0,5.4,28,0.00,,---,0.00,VWS V13.01,2013-06-06 00:42:00,
2013-06-05 20:47:00,71.6,36.8,29.96,NNW,342,4.0,6.3,28,0.00,,---,0.00,VWS V13.01,2013-06-06 00:47:00,
2013-06-05 20:52:00,71.4,37.5,29.96,North,351,4.5,4.5,29,0.00,,---,0.00,VWS V13.01,2013-06-06 00:52:00,
2013-06-05 20:57:00,71.2,37.4,29.96,North,351,4.9,6.7,29,0.00,,---,0.00,VWS V13.01,2013-06-06 00:57:00,
2013-06-05 21:02:00,70.9,37.1,29.96,North,351,6.3,6.7,29,0.00,,---,0.00,VWS V13.01,2013-06-06 01:02:00,
2013-06-05 21:07:00,70.5,38.5,29.96,NNW,331,5.4,8.3,31,0.00,,---,0.00,VWS V13.01,2013-06-06 01:07:00,
2013-06-05 21:12:00,70.3,38.3,29.96,NNW,333,6.3,6.7,31,0.00,,---,0.00,VWS V13.01,2013-06-06 01:12:00,
2013-06-05 21:17:00,70.0,38.0,29.96,NNW,333,5.4,6.9,31,0.00,,---,0.00,VWS V13.01,2013-06-06 01:17:00,
2013-06-05 21:22:00,69.8,38.6,29.96,North,351,5.8,6.3,32,0.00,,---,0.00,VWS V13.01,2013-06-06 01:22:00,
2013-06-05 21:27:00,69.4,38.3,29.96,NNW,337,6.3,6.3,32,0.00,,---,0.00,VWS V13.01,2013-06-06 01:27:00,
2013-06-05 21:32:00,69.3,38.2,29.96,North,3,4.5,6.3,32,0.00,,---,0.00,VWS V13.01,2013-06-06 01:32:00,
2013-06-05 21:37:00,68.9,37.8,29.96,NNW,333,4.9,5.4,32,0.00,,---,0.00,VWS V13.01,2013-06-06 01:37:00,
2013-06-05 21:42:00,68.9,38.6,29.96,North,351,5.8,8.7,33,0.00,,---,0.00,VWS V13.01,2013-06-06 01:42:00,
2013-06-05 21:47:00,68.5,38.3,29.96,North,356,4.5,4.9,33,0.00,,---,0.00,VWS V13.01,2013-06-06 01:47:00,
2013-06-05 21:52:00,68.5,38.3,29.96,NW,321,5.4,5.8,33,0.00,,---,0.00,VWS V13.01,2013-06-06 01:52:00,
2013-06-05 21:57:00,68.5,38.3,29.96,NNW,343,5.8,5.8,33,0.00,,---,0.00,VWS V13.01,2013-06-06 01:57:00,
2013-06-05 22:02:00,68.4,38.2,29.96,NW,321,4.5,4.5,33,0.00,,---,0.00,VWS V13.01,2013-06-06 02:02:00,
2013-06-05 22:07:00,68.2,38.0,29.96,NW,323,5.4,7.4,33,0.00,,---,0.00,VWS V13.01,2013-06-06 02:07:00,
2013-06-05 22:12:00,68.0,38.6,29.96,North,356,5.4,6.3,34,0.00,,---,0.00,VWS V13.01,2013-06-06 02:12:00,
2013-06-05 22:17:00,68.0,38.6,29.96,NW,305,3.1,4.5,34,0.00,,---,0.00,VWS V13.01,2013-06-06 02:17:00,
2013-06-05 22:22:00,67.6,38.3,29.96,NW,304,3.6,5.4,34,0.00,,---,0.00,VWS V13.01,2013-06-06 02:22:00,
2013-06-05 22:27:00,67.6,38.3,29.96,NW,320,4.9,5.4,34,0.00,,---,0.00,VWS V13.01,2013-06-06 02:27:00,
2013-06-05 22:32:00,67.5,38.9,29.96,NNW,338,4.0,4.0,35,0.00,,---,0.00,VWS V13.01,2013-06-06 02:32:00,
2013-06-05 22:37:00,67.3,38.7,29.96,NNW,336,3.6,4.5,35,0.00,,---,0.00,VWS V13.01,2013-06-06 02:37:00,
2013-06-05 22:43:00,67.1,39.3,29.96,NNW,336,0.0,0.0,36,0.00,,---,0.00,VWS V13.01,2013-06-06 02:43:00,
2013-06-05 22:47:00,66.9,39.1,29.96,NNW,347,0.0,4.0,36,0.00,,---,0.00,VWS V13.01,2013-06-06 02:47:00,
2013-06-05 22:52:00,66.7,39.0,29.96,North,351,4.5,4.5,36,0.00,,---,0.00,VWS V13.01,2013-06-06 02:52:00,
2013-06-05 22:57:00,66.6,38.1,29.96,North,356,3.1,5.4,35,0.00,,---,0.00,VWS V13.01,2013-06-06 02:57:00,
2013-06-05 23:02:00,66.4,37.9,29.96,North,351,4.5,4.9,35,0.00,,---,0.00,VWS V13.01,2013-06-06 03:02:00,
2013-06-05 23:07:00,66.4,38.6,29.96,North,351,4.9,5.8,36,0.00,,---,0.00,VWS V13.01,2013-06-06 03:07:00,
2013-06-05 23:12:00,66.4,38.6,29.96,NW,320,3.1,4.0,36,0.00,,---,0.00,VWS V13.01,2013-06-06 03:12:00,
2013-06-05 23:17:00,66.6,39.5,29.96,NW,320,2.7,3.1,37,0.00,,---,0.00,VWS V13.01,2013-06-06 03:17:00,
2013-06-05 23:22:00,66.4,39.3,29.96,NW,320,2.7,4.0,37,0.00,,---,0.00,VWS V13.01,2013-06-06 03:22:00,
2013-06-05 23:27:00,66.4,38.6,29.96,NW,321,3.1,4.5,36,0.00,,---,0.00,VWS V13.01,2013-06-06 03:27:00,
2013-06-05 23:32:00,66.4,38.6,29.96,North,351,4.9,6.7,36,0.00,,---,0.00,VWS V13.01,2013-06-06 03:32:00,
2013-06-05 23:37:00,66.4,37.9,29.96,NNW,343,3.1,5.4,35,0.00,,---,0.00,VWS V13.01,2013-06-06 03:37:00,
2013-06-05 23:42:00,66.4,37.9,29.96,North,7,5.4,6.3,35,0.00,,---,0.00,VWS V13.01,2013-06-06 03:42:00,
2013-06-05 23:47:00,66.2,37.8,29.96,NNW,341,3.6,4.9,35,0.00,,---,0.00,VWS V13.01,2013-06-06 03:47:00,
2013-06-05 23:52:00,66.2,37.8,29.96,NNW,344,4.0,5.8,35,0.00,,---,0.00,VWS V13.01,2013-06-06 03:52:00,
2013-06-05 23:57:00,66.0,37.6,29.96,NNW,345,4.0,4.5,35,0.00,,---,0.00,VWS V13.01,2013-06-06 03:57:00,